sensor_id;sensor_type;location;lat;lon;timestamp;pressure;altitude;pressure_sealevel;temperature;humidity
71917;BME280;59793;46.506;6.674;2024-03-08T00:01:39;96809.56;;;5.85;69.49
71917;BME280;59793;46.506;6.674;2024-03-08T00:04:07;96806.47;;;5.83;69.03
71917;BME280;59793;46.506;6.674;2024-03-08T00:06:33;96809.00;;;5.70;69.41
71917;BME280;59793;46.506;6.674;2024-03-08T00:08:58;96796.91;;;5.66;69.57
71917;BME280;59793;46.506;6.674;2024-03-08T00:11:24;96809.63;;;5.67;69.37
71917;BME280;59793;46.506;6.674;2024-03-08T00:13:51;96814.25;;;5.62;69.25
71917;BME280;59793;46.506;6.674;2024-03-08T00:16:17;96795.13;;;5.40;70.16
71917;BME280;59793;46.506;6.674;2024-03-08T00:18:44;96805.09;;;5.47;70.01
71917;BME280;59793;46.506;6.674;2024-03-08T00:21:09;96773.56;;;5.14;70.59
71917;BME280;59793;46.506;6.674;2024-03-08T00:23:37;96794.13;;;5.15;71.18
71917;BME280;59793;46.506;6.674;2024-03-08T00:26:02;96797.31;;;5.30;71.41
71917;BME280;59793;46.506;6.674;2024-03-08T00:28:29;96791.22;;;5.17;71.38
71917;BME280;59793;46.506;6.674;2024-03-08T00:30:56;96795.38;;;5.09;72.55
71917;BME280;59793;46.506;6.674;2024-03-08T00:33:21;96755.19;;;4.93;72.16
71917;BME280;59793;46.506;6.674;2024-03-08T00:35:46;96780.00;;;5.16;72.21
71917;BME280;59793;46.506;6.674;2024-03-08T00:38:12;96788.75;;;5.20;71.54
71917;BME280;59793;46.506;6.674;2024-03-08T00:40:38;96770.81;;;5.10;72.13
71917;BME280;59793;46.506;6.674;2024-03-08T00:43:04;96774.59;;;5.21;71.86
71917;BME280;59793;46.506;6.674;2024-03-08T00:45:30;96798.41;;;5.28;71.88
71917;BME280;59793;46.506;6.674;2024-03-08T00:47:55;96786.56;;;5.31;71.56
71917;BME280;59793;46.506;6.674;2024-03-08T00:50:21;96788.84;;;5.33;71.71
71917;BME280;59793;46.506;6.674;2024-03-08T00:52:46;96764.78;;;5.18;71.50
71917;BME280;59793;46.506;6.674;2024-03-08T00:55:11;96744.38;;;5.12;71.45
71917;BME280;59793;46.506;6.674;2024-03-08T00:57:37;96764.78;;;5.27;71.16
71917;BME280;59793;46.506;6.674;2024-03-08T01:00:05;96761.22;;;5.32;71.04
71917;BME280;59793;46.506;6.674;2024-03-08T01:02:35;96751.38;;;5.28;70.67
71917;BME280;59793;46.506;6.674;2024-03-08T01:05:01;96760.72;;;5.38;70.18
71917;BME280;59793;46.506;6.674;2024-03-08T01:07:26;96767.75;;;5.46;70.06
71917;BME280;59793;46.506;6.674;2024-03-08T01:09:51;96747.53;;;5.35;70.08
71917;BME280;59793;46.506;6.674;2024-03-08T01:12:17;96763.63;;;5.37;70.33
71917;BME280;59793;46.506;6.674;2024-03-08T01:14:42;96762.25;;;5.39;70.26
71917;BME280;59793;46.506;6.674;2024-03-08T01:17:08;96678.59;;;4.89;70.05
71917;BME280;59793;46.506;6.674;2024-03-08T01:19:34;96734.91;;;5.37;69.82
71917;BME280;59793;46.506;6.674;2024-03-08T01:22:00;96723.56;;;5.33;69.33
71917;BME280;59793;46.506;6.674;2024-03-08T01:24:25;96739.34;;;5.45;69.33
71917;BME280;59793;46.506;6.674;2024-03-08T01:26:50;96735.19;;;5.44;69.32
71917;BME280;59793;46.506;6.674;2024-03-08T01:29:16;96740.47;;;5.35;69.58
71917;BME280;59793;46.506;6.674;2024-03-08T01:31:41;96750.59;;;5.37;69.35
71917;BME280;59793;46.506;6.674;2024-03-08T01:34:07;96748.63;;;5.34;69.52
71917;BME280;59793;46.506;6.674;2024-03-08T01:36:33;96714.75;;;5.08;70.06
71917;BME280;59793;46.506;6.674;2024-03-08T01:38:59;96746.91;;;5.38;69.17
71917;BME280;59793;46.506;6.674;2024-03-08T01:41:24;96740.19;;;5.28;69.45
71917;BME280;59793;46.506;6.674;2024-03-08T01:43:50;96735.91;;;5.23;69.93
71917;BME280;59793;46.506;6.674;2024-03-08T01:46:18;96704.16;;;5.04;70.01
71917;BME280;59793;46.506;6.674;2024-03-08T01:48:44;96717.47;;;5.20;70.09
71917;BME280;59793;46.506;6.674;2024-03-08T01:51:10;96724.91;;;5.09;70.51
71917;BME280;59793;46.506;6.674;2024-03-08T01:53:37;96724.09;;;5.17;70.29
71917;BME280;59793;46.506;6.674;2024-03-08T01:56:03;96717.78;;;5.18;69.96
71917;BME280;59793;46.506;6.674;2024-03-08T01:58:29;96731.78;;;5.05;70.34
71917;BME280;59793;46.506;6.674;2024-03-08T02:00:56;96716.41;;;5.12;70.42
71917;BME280;59793;46.506;6.674;2024-03-08T02:03:22;96718.59;;;5.10;70.58
71917;BME280;59793;46.506;6.674;2024-03-08T02:05:48;96714.59;;;5.04;70.68
71917;BME280;59793;46.506;6.674;2024-03-08T02:08:14;96712.75;;;5.04;70.75
71917;BME280;59793;46.506;6.674;2024-03-08T02:10:40;96710.63;;;4.98;70.83
71917;BME280;59793;46.506;6.674;2024-03-08T02:13:06;96711.50;;;5.11;70.23
71917;BME280;59793;46.506;6.674;2024-03-08T02:15:52;96702.56;;;5.20;69.52
71917;BME280;59793;46.506;6.674;2024-03-08T02:18:18;96690.16;;;5.09;69.81
71917;BME280;59793;46.506;6.674;2024-03-08T02:20:44;96703.66;;;4.55;71.28
71917;BME280;59793;46.506;6.674;2024-03-08T02:23:09;96701.22;;;4.67;71.67
71917;BME280;59793;46.506;6.674;2024-03-08T02:25:35;96685.44;;;4.46;71.95
71917;BME280;59793;46.506;6.674;2024-03-08T02:28:01;96696.31;;;4.48;72.70
71917;BME280;59793;46.506;6.674;2024-03-08T02:30:26;96680.38;;;4.32;73.44
71917;BME280;59793;46.506;6.674;2024-03-08T02:32:55;96683.44;;;4.35;73.44
71917;BME280;59793;46.506;6.674;2024-03-08T02:35:20;96684.06;;;4.40;73.27
71917;BME280;59793;46.506;6.674;2024-03-08T02:37:45;96689.13;;;4.45;73.15
71917;BME280;59793;46.506;6.674;2024-03-08T02:40:13;96656.31;;;4.18;73.69
71917;BME280;59793;46.506;6.674;2024-03-08T02:42:39;96683.94;;;4.28;74.00
71917;BME280;59793;46.506;6.674;2024-03-08T02:45:04;96667.53;;;4.10;74.57
71917;BME280;59793;46.506;6.674;2024-03-08T02:47:31;96666.13;;;4.21;74.02
71917;BME280;59793;46.506;6.674;2024-03-08T02:49:56;96664.91;;;4.10;74.33
71917;BME280;59793;46.506;6.674;2024-03-08T02:52:22;96666.25;;;4.34;73.72
71917;BME280;59793;46.506;6.674;2024-03-08T02:54:48;96671.78;;;4.41;73.37
71917;BME280;59793;46.506;6.674;2024-03-08T02:57:13;96648.94;;;4.29;73.37
71917;BME280;59793;46.506;6.674;2024-03-08T02:59:40;96661.03;;;4.34;73.48
71917;BME280;59793;46.506;6.674;2024-03-08T03:02:05;96669.34;;;4.36;74.08
71917;BME280;59793;46.506;6.674;2024-03-08T03:04:32;96654.31;;;4.32;73.87
71917;BME280;59793;46.506;6.674;2024-03-08T03:06:59;96657.81;;;4.37;74.02
71917;BME280;59793;46.506;6.674;2024-03-08T03:09:25;96644.94;;;4.40;73.87
71917;BME280;59793;46.506;6.674;2024-03-08T03:11:53;96650.63;;;4.16;74.75
71917;BME280;59793;46.506;6.674;2024-03-08T03:14:21;96592.72;;;3.84;74.75
71917;BME280;59793;46.506;6.674;2024-03-08T03:16:46;96634.88;;;4.04;75.34
71917;BME280;59793;46.506;6.674;2024-03-08T03:19:12;96633.34;;;4.03;75.14
71917;BME280;59793;46.506;6.674;2024-03-08T03:21:37;96632.88;;;4.01;75.68
71917;BME280;59793;46.506;6.674;2024-03-08T03:24:04;96635.94;;;4.12;75.61
71917;BME280;59793;46.506;6.674;2024-03-08T03:26:35;96635.94;;;4.03;75.60
71917;BME280;59793;46.506;6.674;2024-03-08T03:29:02;96611.69;;;4.02;75.55
71917;BME280;59793;46.506;6.674;2024-03-08T03:31:28;96618.59;;;3.98;75.52
71917;BME280;59793;46.506;6.674;2024-03-08T03:33:54;96596.69;;;3.73;75.62
71917;BME280;59793;46.506;6.674;2024-03-08T03:36:19;96628.41;;;3.84;75.82
71917;BME280;59793;46.506;6.674;2024-03-08T03:38:45;96620.47;;;3.89;75.78
71917;BME280;59793;46.506;6.674;2024-03-08T03:41:10;96620.31;;;3.94;75.55
71917;BME280;59793;46.506;6.674;2024-03-08T03:43:37;96613.25;;;3.77;76.03
71917;BME280;59793;46.506;6.674;2024-03-08T03:46:06;96619.38;;;3.90;75.94
71917;BME280;59793;46.506;6.674;2024-03-08T03:48:32;96611.41;;;3.87;75.71
71917;BME280;59793;46.506;6.674;2024-03-08T03:50:57;96619.38;;;3.81;76.23
71917;BME280;59793;46.506;6.674;2024-03-08T03:53:22;96607.88;;;3.74;76.31
71917;BME280;59793;46.506;6.674;2024-03-08T03:55:48;96616.94;;;3.76;75.94
71917;BME280;59793;46.506;6.674;2024-03-08T03:58:13;96622.16;;;3.94;75.67
71917;BME280;59793;46.506;6.674;2024-03-08T04:00:39;96618.16;;;3.88;75.65
71917;BME280;59793;46.506;6.674;2024-03-08T04:03:05;96614.94;;;3.82;76.08
71917;BME280;59793;46.506;6.674;2024-03-08T04:05:31;96610.03;;;3.63;76.93
71917;BME280;59793;46.506;6.674;2024-03-08T04:07:56;96619.22;;;3.43;77.95
71917;BME280;59793;46.506;6.674;2024-03-08T04:10:22;96623.97;;;3.58;77.50
71917;BME280;59793;46.506;6.674;2024-03-08T04:12:47;96615.38;;;3.67;77.42
71917;BME280;59793;46.506;6.674;2024-03-08T04:15:13;96613.09;;;3.65;77.08
71917;BME280;59793;46.506;6.674;2024-03-08T04:17:39;96604.06;;;3.54;77.64
71917;BME280;59793;46.506;6.674;2024-03-08T04:20:05;96617.06;;;3.63;77.38
71917;BME280;59793;46.506;6.674;2024-03-08T04:22:38;96578.75;;;3.46;77.30
71917;BME280;59793;46.506;6.674;2024-03-08T04:25:05;96617.06;;;3.63;77.07
71917;BME280;59793;46.506;6.674;2024-03-08T04:27:31;96606.06;;;3.57;77.18
71917;BME280;59793;46.506;6.674;2024-03-08T04:29:57;96609.41;;;3.66;76.75
71917;BME280;59793;46.506;6.674;2024-03-08T04:32:23;96568.94;;;3.43;77.01
71917;BME280;59793;46.506;6.674;2024-03-08T04:34:48;96604.38;;;3.78;76.17
71917;BME280;59793;46.506;6.674;2024-03-08T04:37:15;96606.81;;;3.83;76.24
71917;BME280;59793;46.506;6.674;2024-03-08T04:39:41;96595.63;;;3.74;75.98
71917;BME280;59793;46.506;6.674;2024-03-08T04:42:07;96597.94;;;3.76;75.70
71917;BME280;59793;46.506;6.674;2024-03-08T04:44:36;96600.84;;;3.66;75.33
71917;BME280;59793;46.506;6.674;2024-03-08T04:47:05;96596.88;;;3.68;75.70
71917;BME280;59793;46.506;6.674;2024-03-08T04:49:33;96599.94;;;3.62;75.67
71917;BME280;59793;46.506;6.674;2024-03-08T04:52:05;96596.09;;;3.59;76.30
71917;BME280;59793;46.506;6.674;2024-03-08T04:54:32;96572.63;;;3.42;76.00
71917;BME280;59793;46.506;6.674;2024-03-08T04:56:58;96580.91;;;3.52;75.97
71917;BME280;59793;46.506;6.674;2024-03-08T04:59:25;96599.47;;;3.51;76.77
71917;BME280;59793;46.506;6.674;2024-03-08T05:01:51;96612.47;;;3.51;76.50
71917;BME280;59793;46.506;6.674;2024-03-08T05:04:16;96597.94;;;3.50;76.50
71917;BME280;59793;46.506;6.674;2024-03-08T05:06:41;96592.72;;;3.32;76.82
71917;BME280;59793;46.506;6.674;2024-03-08T05:09:07;96576.28;;;3.23;77.65
71917;BME280;59793;46.506;6.674;2024-03-08T05:11:43;96573.69;;;3.15;78.15
71917;BME280;59793;46.506;6.674;2024-03-08T05:14:09;96563.53;;;2.96;78.67
71917;BME280;59793;46.506;6.674;2024-03-08T05:16:35;96569.25;;;3.15;78.09
71917;BME280;59793;46.506;6.674;2024-03-08T05:19:01;96578.25;;;3.09;78.41
71917;BME280;59793;46.506;6.674;2024-03-08T05:21:26;96571.69;;;3.11;78.34
71917;BME280;59793;46.506;6.674;2024-03-08T05:23:54;96563.41;;;3.01;79.22
71917;BME280;59793;46.506;6.674;2024-03-08T05:26:19;96568.59;;;3.01;78.70
71917;BME280;59793;46.506;6.674;2024-03-08T05:28:45;96568.72;;;2.96;78.58
71917;BME280;59793;46.506;6.674;2024-03-08T05:31:20;96567.63;;;2.79;78.77
71917;BME280;59793;46.506;6.674;2024-03-08T05:33:49;96542.16;;;2.59;79.19
71917;BME280;59793;46.506;6.674;2024-03-08T05:36:15;96559.84;;;2.79;78.82
71917;BME280;59793;46.506;6.674;2024-03-08T05:38:42;96563.31;;;2.66;79.31
71917;BME280;59793;46.506;6.674;2024-03-08T05:41:09;96541.84;;;2.60;78.95
71917;BME280;59793;46.506;6.674;2024-03-08T05:43:35;96517.22;;;2.58;78.85
71917;BME280;59793;46.506;6.674;2024-03-08T05:46:02;96566.88;;;2.87;79.15
71917;BME280;59793;46.506;6.674;2024-03-08T05:48:29;96547.00;;;2.83;79.05
71917;BME280;59793;46.506;6.674;2024-03-08T05:50:57;96555.44;;;2.97;78.35
71917;BME280;59793;46.506;6.674;2024-03-08T05:53:23;96552.03;;;2.88;79.02
71917;BME280;59793;46.506;6.674;2024-03-08T05:55:48;96555.41;;;2.88;78.83
71917;BME280;59793;46.506;6.674;2024-03-08T05:58:14;96550.84;;;2.94;78.44
71917;BME280;59793;46.506;6.674;2024-03-08T06:00:40;96537.66;;;2.91;78.28
71917;BME280;59793;46.506;6.674;2024-03-08T06:03:05;96547.50;;;3.11;77.72
71917;BME280;59793;46.506;6.674;2024-03-08T06:05:30;96545.66;;;3.20;77.90
71917;BME280;59793;46.506;6.674;2024-03-08T06:07:56;96561.31;;;3.38;77.35
71917;BME280;59793;46.506;6.674;2024-03-08T06:10:21;96545.53;;;3.43;77.35
71917;BME280;59793;46.506;6.674;2024-03-08T06:12:47;96552.75;;;3.54;77.22
71917;BME280;59793;46.506;6.674;2024-03-08T06:15:12;96522.56;;;3.45;77.21
71917;BME280;59793;46.506;6.674;2024-03-08T06:17:41;96527.16;;;3.65;76.76
71917;BME280;59793;46.506;6.674;2024-03-08T06:20:07;96535.84;;;3.87;75.95
71917;BME280;59793;46.506;6.674;2024-03-08T06:22:41;96500.94;;;3.70;76.61
71917;BME280;59793;46.506;6.674;2024-03-08T06:25:10;96528.78;;;3.87;76.27
71917;BME280;59793;46.506;6.674;2024-03-08T06:27:39;96499.22;;;3.74;76.28
71917;BME280;59793;46.506;6.674;2024-03-08T06:30:06;96520.97;;;3.87;75.22
71917;BME280;59793;46.506;6.674;2024-03-08T06:32:32;96536.16;;;3.94;75.64
71917;BME280;59793;46.506;6.674;2024-03-08T06:35:03;96538.91;;;3.97;75.83
71917;BME280;59793;46.506;6.674;2024-03-08T06:37:33;96537.81;;;3.98;75.98
71917;BME280;59793;46.506;6.674;2024-03-08T06:39:59;96531.22;;;4.01;75.88
71917;BME280;59793;46.506;6.674;2024-03-08T06:42:26;96527.38;;;4.07;75.85
71917;BME280;59793;46.506;6.674;2024-03-08T06:44:52;96513.28;;;4.08;75.37
71917;BME280;59793;46.506;6.674;2024-03-08T06:47:20;96538.34;;;4.30;75.43
71917;BME280;59793;46.506;6.674;2024-03-08T06:49:46;96529.75;;;4.29;75.49
71917;BME280;59793;46.506;6.674;2024-03-08T06:52:11;96515.28;;;4.41;75.17
71917;BME280;59793;46.506;6.674;2024-03-08T06:54:37;96517.56;;;4.51;74.48
71917;BME280;59793;46.506;6.674;2024-03-08T06:57:03;96518.44;;;4.64;73.99
71917;BME280;59793;46.506;6.674;2024-03-08T06:59:29;96534.56;;;4.87;72.89
71917;BME280;59793;46.506;6.674;2024-03-08T07:01:54;96525.34;;;4.89;73.35
71917;BME280;59793;46.506;6.674;2024-03-08T07:04:20;96496.06;;;4.84;72.57
71917;BME280;59793;46.506;6.674;2024-03-08T07:06:47;96491.22;;;4.94;72.29
71917;BME280;59793;46.506;6.674;2024-03-08T07:09:15;96530.66;;;5.22;71.76
71917;BME280;59793;46.506;6.674;2024-03-08T07:11:42;96530.50;;;5.27;71.40
71917;BME280;59793;46.506;6.674;2024-03-08T07:14:08;96519.41;;;5.31;71.18
71917;BME280;59793;46.506;6.674;2024-03-08T07:16:34;96520.66;;;5.24;70.38
71917;BME280;59793;46.506;6.674;2024-03-08T07:19:03;96504.75;;;5.17;70.77
71917;BME280;59793;46.506;6.674;2024-03-08T07:21:28;96525.53;;;5.35;70.87
71917;BME280;59793;46.506;6.674;2024-03-08T07:23:54;96519.97;;;5.36;70.50
71917;BME280;59793;46.506;6.674;2024-03-08T07:26:25;96525.94;;;5.58;70.50
71917;BME280;59793;46.506;6.674;2024-03-08T07:28:51;96526.16;;;5.53;71.25
71917;BME280;59793;46.506;6.674;2024-03-08T07:31:17;96521.47;;;5.58;70.24
71917;BME280;59793;46.506;6.674;2024-03-08T07:33:42;96512.22;;;5.61;70.16
71917;BME280;59793;46.506;6.674;2024-03-08T07:36:08;96531.84;;;5.88;69.54
71917;BME280;59793;46.506;6.674;2024-03-08T07:38:33;96495.34;;;5.58;69.91
71917;BME280;59793;46.506;6.674;2024-03-08T07:40:59;96504.34;;;5.69;70.02
71917;BME280;59793;46.506;6.674;2024-03-08T07:43:25;96530.63;;;5.85;70.16
71917;BME280;59793;46.506;6.674;2024-03-08T07:45:51;96539.44;;;5.81;69.57
71917;BME280;59793;46.506;6.674;2024-03-08T07:48:18;96493.16;;;5.48;69.73
71917;BME280;59793;46.506;6.674;2024-03-08T07:50:43;96512.63;;;5.50;70.40
71917;BME280;59793;46.506;6.674;2024-03-08T07:53:08;96533.38;;;5.68;69.92
71917;BME280;59793;46.506;6.674;2024-03-08T07:55:35;96482.69;;;5.48;69.29
71917;BME280;59793;46.506;6.674;2024-03-08T07:58:01;96507.59;;;5.66;70.30
71917;BME280;59793;46.506;6.674;2024-03-08T08:00:31;96497.31;;;5.61;69.86
71917;BME280;59793;46.506;6.674;2024-03-08T08:02:56;96508.72;;;5.90;68.85
71917;BME280;59793;46.506;6.674;2024-03-08T08:05:22;96497.66;;;5.93;68.70
71917;BME280;59793;46.506;6.674;2024-03-08T08:07:47;96456.13;;;5.46;69.17
71917;BME280;59793;46.506;6.674;2024-03-08T08:10:13;96513.69;;;6.04;68.05
71917;BME280;59793;46.506;6.674;2024-03-08T08:12:51;96479.16;;;5.98;68.77
71917;BME280;59793;46.506;6.674;2024-03-08T08:15:17;96513.22;;;6.35;69.35
71917;BME280;59793;46.506;6.674;2024-03-08T08:17:47;96407.25;;;6.04;67.46
71917;BME280;59793;46.506;6.674;2024-03-08T08:20:13;96500.56;;;6.86;66.90
71917;BME280;59793;46.506;6.674;2024-03-08T08:22:39;96384.50;;;6.17;65.94
71917;BME280;59793;46.506;6.674;2024-03-08T08:25:08;96414.22;;;6.49;64.74
71917;BME280;59793;46.506;6.674;2024-03-08T08:27:34;96411.72;;;6.40;64.88
71917;BME280;59793;46.506;6.674;2024-03-08T08:30:03;96456.28;;;6.81;65.56
71917;BME280;59793;46.506;6.674;2024-03-08T08:32:33;96487.78;;;6.97;65.50
71917;BME280;59793;46.506;6.674;2024-03-08T08:34:59;96473.69;;;7.01;64.34
71917;BME280;59793;46.506;6.674;2024-03-08T08:37:24;96398.63;;;6.53;65.46
71917;BME280;59793;46.506;6.674;2024-03-08T08:39:50;96473.56;;;7.10;65.74
71917;BME280;59793;46.506;6.674;2024-03-08T08:42:16;96432.78;;;6.97;64.32
71917;BME280;59793;46.506;6.674;2024-03-08T08:44:42;96457.72;;;7.18;64.17
71917;BME280;59793;46.506;6.674;2024-03-08T08:47:08;96415.50;;;7.08;63.47
71917;BME280;59793;46.506;6.674;2024-03-08T08:49:33;96411.97;;;7.16;63.31
71917;BME280;59793;46.506;6.674;2024-03-08T08:51:59;96428.16;;;7.06;63.63
71917;BME280;59793;46.506;6.674;2024-03-08T08:54:24;96407.63;;;6.80;63.91
71917;BME280;59793;46.506;6.674;2024-03-08T08:56:50;96423.19;;;7.01;64.17
71917;BME280;59793;46.506;6.674;2024-03-08T08:59:17;96390.09;;;6.68;63.65
71917;BME280;59793;46.506;6.674;2024-03-08T09:01:46;96355.00;;;6.57;63.47
71917;BME280;59793;46.506;6.674;2024-03-08T09:04:15;96439.28;;;7.15;62.26
71917;BME280;59793;46.506;6.674;2024-03-08T09:06:42;96455.28;;;7.26;62.69
71917;BME280;59793;46.506;6.674;2024-03-08T09:09:09;96442.66;;;7.15;63.13
71917;BME280;59793;46.506;6.674;2024-03-08T09:11:38;96372.56;;;6.56;63.11
71917;BME280;59793;46.506;6.674;2024-03-08T09:14:08;96369.53;;;6.54;64.24
71917;BME280;59793;46.506;6.674;2024-03-08T09:16:34;96397.09;;;6.52;64.94
71917;BME280;59793;46.506;6.674;2024-03-08T09:19:01;96375.06;;;6.65;63.86
71917;BME280;59793;46.506;6.674;2024-03-08T09:21:27;96359.84;;;6.83;63.14
71917;BME280;59793;46.506;6.674;2024-03-08T09:23:53;96468.75;;;7.68;63.12
71917;BME280;59793;46.506;6.674;2024-03-08T09:26:19;96470.94;;;7.38;63.12
71917;BME280;59793;46.506;6.674;2024-03-08T09:28:45;96451.66;;;7.30;64.07
71917;BME280;59793;46.506;6.674;2024-03-08T09:31:11;96405.53;;;7.13;63.40
71917;BME280;59793;46.506;6.674;2024-03-08T09:33:37;96364.41;;;7.42;62.25
71917;BME280;59793;46.506;6.674;2024-03-08T09:36:04;96446.47;;;8.06;61.81
71917;BME280;59793;46.506;6.674;2024-03-08T09:38:30;96456.84;;;7.71;63.66
71917;BME280;59793;46.506;6.674;2024-03-08T09:40:55;96374.00;;;7.38;62.33
71917;BME280;59793;46.506;6.674;2024-03-08T09:43:24;96456.88;;;8.34;61.96
71917;BME280;59793;46.506;6.674;2024-03-08T09:45:51;96365.09;;;7.71;61.03
71917;BME280;59793;46.506;6.674;2024-03-08T09:48:18;96443.88;;;8.37;61.69
71917;BME280;59793;46.506;6.674;2024-03-08T09:50:45;96386.78;;;7.55;62.72
71917;BME280;59793;46.506;6.674;2024-03-08T09:53:11;96406.94;;;7.83;62.54
71917;BME280;59793;46.506;6.674;2024-03-08T09:55:40;96445.19;;;7.84;62.87
71917;BME280;59793;46.506;6.674;2024-03-08T09:58:12;96367.78;;;7.90;61.06
71917;BME280;59793;46.506;6.674;2024-03-08T10:00:54;96359.75;;;7.99;61.56
71917;BME280;59793;46.506;6.674;2024-03-08T10:03:22;96429.97;;;8.05;61.97
71917;BME280;59793;46.506;6.674;2024-03-08T10:05:48;96316.94;;;7.15;62.77
71917;BME280;59793;46.506;6.674;2024-03-08T10:08:14;96343.34;;;7.86;61.52
71917;BME280;59793;46.506;6.674;2024-03-08T10:10:40;96342.19;;;8.19;60.86
71917;BME280;59793;46.506;6.674;2024-03-08T10:13:06;96337.66;;;8.70;59.75
71917;BME280;59793;46.506;6.674;2024-03-08T10:15:33;96409.56;;;9.20;58.34
71917;BME280;59793;46.506;6.674;2024-03-08T10:17:59;96392.53;;;9.33;57.23
71917;BME280;59793;46.506;6.674;2024-03-08T10:20:30;96292.81;;;8.59;57.29
71917;BME280;59793;46.506;6.674;2024-03-08T10:23:03;96389.50;;;9.31;57.75
71917;BME280;59793;46.506;6.674;2024-03-08T10:25:34;96290.25;;;8.08;59.31
71917;BME280;59793;46.506;6.674;2024-03-08T10:28:05;96291.47;;;8.30;59.11
71917;BME280;59793;46.506;6.674;2024-03-08T10:30:33;96327.44;;;8.84;58.00
71917;BME280;59793;46.506;6.674;2024-03-08T10:33:00;96333.72;;;8.60;58.53
71917;BME280;59793;46.506;6.674;2024-03-08T10:35:27;96372.56;;;8.71;60.91
71917;BME280;59793;46.506;6.674;2024-03-08T10:37:52;96300.56;;;8.52;59.39
71917;BME280;59793;46.506;6.674;2024-03-08T10:40:29;96327.16;;;8.51;59.82
71917;BME280;59793;46.506;6.674;2024-03-08T10:42:59;96359.34;;;8.86;59.47
71917;BME280;59793;46.506;6.674;2024-03-08T10:45:35;96320.44;;;8.53;60.05
71917;BME280;59793;46.506;6.674;2024-03-08T10:48:30;96350.31;;;9.03;59.27
71917;BME280;59793;46.506;6.674;2024-03-08T10:50:59;96354.59;;;8.53;59.65
71917;BME280;59793;46.506;6.674;2024-03-08T10:53:28;96344.56;;;8.24;61.36
71917;BME280;59793;46.506;6.674;2024-03-08T10:55:57;96355.63;;;8.49;61.08
71917;BME280;59793;46.506;6.674;2024-03-08T10:58:27;96349.75;;;8.75;60.12
71917;BME280;59793;46.506;6.674;2024-03-08T11:00:55;96328.81;;;9.40;59.17
71917;BME280;59793;46.506;6.674;2024-03-08T11:06:08;96325.31;;;9.55;57.77
71917;BME280;59793;46.506;6.674;2024-03-08T11:08:38;96331.78;;;9.39;57.58
71917;BME280;59793;46.506;6.674;2024-03-08T11:11:05;96326.59;;;9.00;58.62
71917;BME280;59793;46.506;6.674;2024-03-08T11:13:43;96319.97;;;8.67;59.68
71917;BME280;59793;46.506;6.674;2024-03-08T11:18:54;96313.47;;;8.26;61.10
71917;BME280;59793;46.506;6.674;2024-03-08T11:21:19;96301.63;;;7.81;62.49
71917;BME280;59793;46.506;6.674;2024-03-08T11:24:01;96283.09;;;7.89;62.60
71917;BME280;59793;46.506;6.674;2024-03-08T11:26:27;96265.66;;;7.97;62.24
71917;BME280;59793;46.506;6.674;2024-03-08T11:34:36;96287.31;;;8.45;61.52
71917;BME280;59793;46.506;6.674;2024-03-08T11:37:07;96246.25;;;8.56;61.44
71917;BME280;59793;46.506;6.674;2024-03-08T11:39:39;96266.59;;;8.82;59.50
71917;BME280;59793;46.506;6.674;2024-03-08T11:42:06;96256.75;;;8.56;61.19
71917;BME280;59793;46.506;6.674;2024-03-08T11:44:32;96264.34;;;8.81;60.60
71917;BME280;59793;46.506;6.674;2024-03-08T11:46:57;96272.09;;;9.16;59.61
71917;BME280;59793;46.506;6.674;2024-03-08T11:49:24;96267.66;;;8.78;60.62
71917;BME280;59793;46.506;6.674;2024-03-08T11:51:51;96265.00;;;8.97;59.75
71917;BME280;59793;46.506;6.674;2024-03-08T11:54:21;96255.84;;;8.88;60.76
71917;BME280;59793;46.506;6.674;2024-03-08T11:56:48;96261.06;;;9.56;58.78
71917;BME280;59793;46.506;6.674;2024-03-08T11:59:16;96238.81;;;9.50;58.86
71917;BME280;59793;46.506;6.674;2024-03-08T12:01:43;96236.03;;;9.40;58.16
71917;BME280;59793;46.506;6.674;2024-03-08T12:04:11;96219.19;;;9.71;57.79
71917;BME280;59793;46.506;6.674;2024-03-08T12:06:39;96229.25;;;9.62;57.50
71917;BME280;59793;46.506;6.674;2024-03-08T12:09:08;96224.25;;;9.56;57.73
71917;BME280;59793;46.506;6.674;2024-03-08T12:11:36;96195.53;;;9.71;56.96
71917;BME280;59793;46.506;6.674;2024-03-08T12:14:02;96210.41;;;9.60;57.39
71917;BME280;59793;46.506;6.674;2024-03-08T12:16:28;96149.06;;;9.25;57.90
71917;BME280;59793;46.506;6.674;2024-03-08T12:18:53;96183.81;;;9.95;57.05
71917;BME280;59793;46.506;6.674;2024-03-08T12:21:19;96153.09;;;10.02;56.06
71917;BME280;59793;46.506;6.674;2024-03-08T12:24:09;96192.25;;;10.08;57.59
71917;BME280;59793;46.506;6.674;2024-03-08T12:26:36;96187.63;;;9.97;56.94
71917;BME280;59793;46.506;6.674;2024-03-08T12:29:21;96181.38;;;9.79;57.54
71917;BME280;59793;46.506;6.674;2024-03-08T12:31:52;96176.16;;;10.13;57.36
71917;BME280;59793;46.506;6.674;2024-03-08T12:34:18;96167.44;;;10.09;56.52
71917;BME280;59793;46.506;6.674;2024-03-08T12:36:45;96171.09;;;10.64;56.71
71917;BME280;59793;46.506;6.674;2024-03-08T12:39:13;96152.31;;;11.14;56.14
71917;BME280;59793;46.506;6.674;2024-03-08T12:41:41;96130.75;;;10.57;55.35
71917;BME280;59793;46.506;6.674;2024-03-08T12:44:07;96162.66;;;10.89;54.79
71917;BME280;59793;46.506;6.674;2024-03-08T12:46:37;96150.28;;;10.96;54.96
71917;BME280;59793;46.506;6.674;2024-03-08T12:49:08;96126.34;;;10.68;55.83
71917;BME280;59793;46.506;6.674;2024-03-08T12:51:38;96135.03;;;11.27;54.13
71917;BME280;59793;46.506;6.674;2024-03-08T12:54:05;96113.75;;;11.57;52.79
71917;BME280;59793;46.506;6.674;2024-03-08T12:56:33;96122.00;;;11.48;53.62
71917;BME280;59793;46.506;6.674;2024-03-08T12:59:00;96118.19;;;11.39;54.22
71917;BME280;59793;46.506;6.674;2024-03-08T13:01:26;96121.84;;;11.89;52.13
71917;BME280;59793;46.506;6.674;2024-03-08T13:03:56;96115.53;;;11.35;53.71
71917;BME280;59793;46.506;6.674;2024-03-08T13:06:22;96104.69;;;11.55;53.30
71917;BME280;59793;46.506;6.674;2024-03-08T13:08:50;96099.31;;;11.33;53.42
71917;BME280;59793;46.506;6.674;2024-03-08T13:11:16;96095.75;;;10.56;55.39
71917;BME280;59793;46.506;6.674;2024-03-08T13:13:42;96099.72;;;10.02;57.28
71917;BME280;59793;46.506;6.674;2024-03-08T13:16:09;96085.94;;;9.48;58.99
71917;BME280;59793;46.506;6.674;2024-03-08T13:18:35;96083.31;;;9.48;59.65
71917;BME280;59793;46.506;6.674;2024-03-08T13:21:01;96082.91;;;9.46;59.14